sensor_id;sensor_type;location;lat;lon;timestamp;pressure;altitude;pressure_sealevel;temperature;humidity
84427;BME280;74637;52.170;21.034;2024-02-21T00:02:13;101023.77;;;3.89;84.18
84427;BME280;74637;52.170;21.034;2024-02-21T00:04:39;101022.56;;;3.87;84.32
84427;BME280;74637;52.170;21.034;2024-02-21T00:07:06;101026.11;;;3.85;84.77
84427;BME280;74637;52.170;21.034;2024-02-21T00:09:32;101026.61;;;3.86;84.42
84427;BME280;74637;52.170;21.034;2024-02-21T00:11:59;101025.36;;;3.89;84.31
84427;BME280;74637;52.170;21.034;2024-02-21T00:14:27;101026.39;;;3.90;84.52
84427;BME280;74637;52.170;21.034;2024-02-21T00:16:54;101017.78;;;3.91;84.57
84427;BME280;74637;52.170;21.034;2024-02-21T00:19:20;101015.98;;;3.94;84.27
84427;BME280;74637;52.170;21.034;2024-02-21T00:21:47;101011.23;;;3.95;84.16
84427;BME280;74637;52.170;21.034;2024-02-21T00:24:13;101010.16;;;3.97;84.34
84427;BME280;74637;52.170;21.034;2024-02-21T00:26:40;101008.20;;;3.99;84.32
84427;BME280;74637;52.170;21.034;2024-02-21T00:29:06;101008.59;;;3.98;84.28
84427;BME280;74637;52.170;21.034;2024-02-21T00:31:33;101009.64;;;3.97;84.41
84427;BME280;74637;52.170;21.034;2024-02-21T00:34:00;101007.70;;;3.98;84.69
84427;BME280;74637;52.170;21.034;2024-02-21T00:36:26;101006.45;;;3.98;84.55
84427;BME280;74637;52.170;21.034;2024-02-21T00:38:53;101005.06;;;3.98;84.53
84427;BME280;74637;52.170;21.034;2024-02-21T00:41:19;101002.96;;;3.98;84.37
84427;BME280;74637;52.170;21.034;2024-02-21T00:43:46;101003.46;;;4.00;84.56
84427;BME280;74637;52.170;21.034;2024-02-21T00:46:14;101002.90;;;4.02;84.58
84427;BME280;74637;52.170;21.034;2024-02-21T00:48:41;101000.09;;;4.03;84.55
84427;BME280;74637;52.170;21.034;2024-02-21T00:51:07;101002.17;;;4.04;84.48
84427;BME280;74637;52.170;21.034;2024-02-21T00:53:34;100999.02;;;4.03;84.66
84427;BME280;74637;52.170;21.034;2024-02-21T00:56:07;100996.20;;;4.04;84.83
84427;BME280;74637;52.170;21.034;2024-02-21T00:58:34;100992.02;;;4.03;84.74
84427;BME280;74637;52.170;21.034;2024-02-21T01:01:01;100993.77;;;4.04;84.84
84427;BME280;74637;52.170;21.034;2024-02-21T01:03:28;100990.23;;;4.05;84.80
84427;BME280;74637;52.170;21.034;2024-02-21T01:05:54;100991.05;;;4.09;84.84
84427;BME280;74637;52.170;21.034;2024-02-21T01:08:21;100989.98;;;4.11;84.63
84427;BME280;74637;52.170;21.034;2024-02-21T01:10:47;100981.06;;;4.09;84.84
84427;BME280;74637;52.170;21.034;2024-02-21T01:13:14;100978.13;;;4.06;84.77
84427;BME280;74637;52.170;21.034;2024-02-21T01:15:40;100979.21;;;4.03;84.89
84427;BME280;74637;52.170;21.034;2024-02-21T01:18:07;100969.23;;;4.02;85.31
84427;BME280;74637;52.170;21.034;2024-02-21T01:20:33;100977.63;;;4.03;85.07
84427;BME280;74637;52.170;21.034;2024-02-21T01:23:00;100970.95;;;4.04;85.53
84427;BME280;74637;52.170;21.034;2024-02-21T01:25:27;100968.64;;;4.06;85.53
84427;BME280;74637;52.170;21.034;2024-02-21T01:27:53;100970.20;;;4.07;85.80
84427;BME280;74637;52.170;21.034;2024-02-21T01:30:20;100971.92;;;4.10;85.93
84427;BME280;74637;52.170;21.034;2024-02-21T01:32:46;100969.98;;;4.11;85.92
84427;BME280;74637;52.170;21.034;2024-02-21T01:35:13;100970.65;;;4.12;85.98
84427;BME280;74637;52.170;21.034;2024-02-21T01:37:39;100967.84;;;4.14;85.58
84427;BME280;74637;52.170;21.034;2024-02-21T01:40:07;100963.80;;;4.13;86.06
84427;BME280;74637;52.170;21.034;2024-02-21T01:42:38;100964.88;;;4.12;86.14
84427;BME280;74637;52.170;21.034;2024-02-21T01:45:05;100961.73;;;4.11;86.73
84427;BME280;74637;52.170;21.034;2024-02-21T01:47:32;100962.28;;;4.09;86.59
84427;BME280;74637;52.170;21.034;2024-02-21T01:49:59;100962.85;;;4.06;87.03
84427;BME280;74637;52.170;21.034;2024-02-21T01:52:29;100959.92;;;4.03;86.80
84427;BME280;74637;52.170;21.034;2024-02-21T01:54:57;100957.30;;;4.02;87.16
84427;BME280;74637;52.170;21.034;2024-02-21T01:57:24;100959.92;;;4.03;87.15
84427;BME280;74637;52.170;21.034;2024-02-21T01:59:52;100958.86;;;4.04;87.50
84427;BME280;74637;52.170;21.034;2024-02-21T02:02:18;100958.85;;;4.04;87.42
84427;BME280;74637;52.170;21.034;2024-02-21T02:04:45;100962.17;;;4.05;87.54
84427;BME280;74637;52.170;21.034;2024-02-21T02:07:12;100958.52;;;4.03;87.89
84427;BME280;74637;52.170;21.034;2024-02-21T02:09:39;100957.48;;;4.02;87.70
84427;BME280;74637;52.170;21.034;2024-02-21T02:12:06;100952.55;;;4.03;87.48
84427;BME280;74637;52.170;21.034;2024-02-21T02:14:32;100960.08;;;4.05;87.58
84427;BME280;74637;52.170;21.034;2024-02-21T02:16:59;100952.88;;;4.05;88.12
84427;BME280;74637;52.170;21.034;2024-02-21T02:19:26;100949.36;;;4.05;87.81
84427;BME280;74637;52.170;21.034;2024-02-21T02:22:01;100950.23;;;4.05;87.84
84427;BME280;74637;52.170;21.034;2024-02-21T02:24:31;100946.50;;;4.09;88.04
84427;BME280;74637;52.170;21.034;2024-02-21T02:26:58;100946.63;;;4.12;88.11
84427;BME280;74637;52.170;21.034;2024-02-21T02:29:24;100945.55;;;4.14;88.41
84427;BME280;74637;52.170;21.034;2024-02-21T02:31:51;100946.40;;;4.15;88.42
84427;BME280;74637;52.170;21.034;2024-02-21T02:34:17;100939.01;;;4.17;88.42
84427;BME280;74637;52.170;21.034;2024-02-21T02:36:44;100941.09;;;4.18;88.29
84427;BME280;74637;52.170;21.034;2024-02-21T02:39:10;100940.20;;;4.19;88.34
84427;BME280;74637;52.170;21.034;2024-02-21T02:41:37;100941.62;;;4.18;88.17
84427;BME280;74637;52.170;21.034;2024-02-21T02:44:03;100936.89;;;4.18;88.24
84427;BME280;74637;52.170;21.034;2024-02-21T02:46:30;100938.82;;;4.18;88.68
84427;BME280;74637;52.170;21.034;2024-02-21T02:48:57;100935.70;;;4.16;88.10
84427;BME280;74637;52.170;21.034;2024-02-21T02:51:23;100939.19;;;4.17;88.52
84427;BME280;74637;52.170;21.034;2024-02-21T02:53:50;100931.46;;;4.17;88.48
84427;BME280;74637;52.170;21.034;2024-02-21T02:56:16;100931.10;;;4.18;88.57
84427;BME280;74637;52.170;21.034;2024-02-21T02:58:43;100931.44;;;4.19;88.67
84427;BME280;74637;52.170;21.034;2024-02-21T03:01:10;100932.29;;;4.20;88.33
84427;BME280;74637;52.170;21.034;2024-02-21T03:03:37;100934.73;;;4.21;88.64
84427;BME280;74637;52.170;21.034;2024-02-21T03:06:03;100932.27;;;4.21;88.86
84427;BME280;74637;52.170;21.034;2024-02-21T03:08:31;100934.92;;;4.20;88.91
84427;BME280;74637;52.170;21.034;2024-02-21T03:10:59;100936.34;;;4.19;88.99
84427;BME280;74637;52.170;21.034;2024-02-21T03:13:26;100933.36;;;4.19;89.05
84427;BME280;74637;52.170;21.034;2024-02-21T03:15:52;100936.86;;;4.20;89.47
84427;BME280;74637;52.170;21.034;2024-02-21T03:18:19;100935.23;;;4.23;89.16
84427;BME280;74637;52.170;21.034;2024-02-21T03:20:45;100934.35;;;4.23;89.47
84427;BME280;74637;52.170;21.034;2024-02-21T03:23:12;100938.06;;;4.21;89.24
84427;BME280;74637;52.170;21.034;2024-02-21T03:25:38;100937.05;;;4.19;89.40
84427;BME280;74637;52.170;21.034;2024-02-21T03:28:05;100935.67;;;4.17;89.47
84427;BME280;74637;52.170;21.034;2024-02-21T03:30:32;100933.77;;;4.16;89.31
84427;BME280;74637;52.170;21.034;2024-02-21T03:33:00;100933.61;;;4.15;89.34
84427;BME280;74637;52.170;21.034;2024-02-21T03:35:27;100930.51;;;4.11;89.65
84427;BME280;74637;52.170;21.034;2024-02-21T03:37:54;100929.20;;;4.05;89.57
84427;BME280;74637;52.170;21.034;2024-02-21T03:40:20;100931.39;;;3.98;89.51
84427;BME280;74637;52.170;21.034;2024-02-21T03:42:47;100931.83;;;3.93;89.74
84427;BME280;74637;52.170;21.034;2024-02-21T03:45:14;100931.54;;;3.89;89.88
84427;BME280;74637;52.170;21.034;2024-02-21T03:47:40;100931.93;;;3.86;89.92
84427;BME280;74637;52.170;21.034;2024-02-21T03:50:07;100932.64;;;3.86;90.11
84427;BME280;74637;52.170;21.034;2024-02-21T03:52:34;100932.31;;;3.84;89.94
84427;BME280;74637;52.170;21.034;2024-02-21T03:55:00;100930.05;;;3.83;90.12
84427;BME280;74637;52.170;21.034;2024-02-21T03:57:27;100930.92;;;3.83;90.37
84427;BME280;74637;52.170;21.034;2024-02-21T03:59:53;100929.71;;;3.82;90.07
84427;BME280;74637;52.170;21.034;2024-02-21T04:02:20;100930.07;;;3.81;90.19
84427;BME280;74637;52.170;21.034;2024-02-21T04:04:46;100929.37;;;3.81;90.33
84427;BME280;74637;52.170;21.034;2024-02-21T04:07:14;100930.95;;;3.81;90.28
84427;BME280;74637;52.170;21.034;2024-02-21T04:09:41;100933.92;;;3.82;90.33
84427;BME280;74637;52.170;21.034;2024-02-21T04:12:08;100932.48;;;3.84;90.34
84427;BME280;74637;52.170;21.034;2024-02-21T04:14:35;100929.66;;;3.86;90.57
84427;BME280;74637;52.170;21.034;2024-02-21T04:17:02;100928.91;;;3.89;90.47
84427;BME280;74637;52.170;21.034;2024-02-21T04:19:29;100921.52;;;3.90;90.22
84427;BME280;74637;52.170;21.034;2024-02-21T04:21:57;100917.30;;;3.92;90.57
84427;BME280;74637;52.170;21.034;2024-02-21T04:24:24;100913.23;;;3.94;90.66
84427;BME280;74637;52.170;21.034;2024-02-21T04:26:50;100914.44;;;3.95;90.61
84427;BME280;74637;52.170;21.034;2024-02-21T04:29:17;100909.31;;;3.97;90.43
84427;BME280;74637;52.170;21.034;2024-02-21T04:31:43;100912.64;;;3.98;90.72
84427;BME280;74637;52.170;21.034;2024-02-21T04:34:11;100906.83;;;4.00;90.69
84427;BME280;74637;52.170;21.034;2024-02-21T04:36:37;100903.30;;;4.01;90.47
84427;BME280;74637;52.170;21.034;2024-02-21T04:39:04;100898.89;;;4.03;90.58
84427;BME280;74637;52.170;21.034;2024-02-21T04:41:30;100897.98;;;4.04;90.59
84427;BME280;74637;52.170;21.034;2024-02-21T04:43:57;100898.66;;;4.07;90.83
84427;BME280;74637;52.170;21.034;2024-02-21T04:46:23;100900.91;;;4.08;90.91
84427;BME280;74637;52.170;21.034;2024-02-21T04:48:50;100901.59;;;4.09;90.79
84427;BME280;74637;52.170;21.034;2024-02-21T04:51:16;100906.33;;;4.09;90.84
84427;BME280;74637;52.170;21.034;2024-02-21T04:53:43;100899.46;;;4.11;90.83
84427;BME280;74637;52.170;21.034;2024-02-21T04:56:09;100898.21;;;4.13;91.13
84427;BME280;74637;52.170;21.034;2024-02-21T04:58:39;100898.52;;;4.15;90.98
84427;BME280;74637;52.170;21.034;2024-02-21T05:01:07;100898.66;;;4.17;90.94
84427;BME280;74637;52.170;21.034;2024-02-21T05:03:34;100899.00;;;4.18;91.05
84427;BME280;74637;52.170;21.034;2024-02-21T05:06:00;100899.85;;;4.19;91.00
84427;BME280;74637;52.170;21.034;2024-02-21T05:08:27;100900.87;;;4.21;91.21
84427;BME280;74637;52.170;21.034;2024-02-21T05:10:53;100901.90;;;4.22;91.12
84427;BME280;74637;52.170;21.034;2024-02-21T05:13:20;100902.45;;;4.22;91.02
84427;BME280;74637;52.170;21.034;2024-02-21T05:15:47;100902.80;;;4.21;90.91
84427;BME280;74637;52.170;21.034;2024-02-21T05:18:14;100901.39;;;4.21;91.09
84427;BME280;74637;52.170;21.034;2024-02-21T05:20:40;100896.98;;;4.23;90.93
84427;BME280;74637;52.170;21.034;2024-02-21T05:23:07;100889.77;;;4.24;91.05
84427;BME280;74637;52.170;21.034;2024-02-21T05:25:33;100893.45;;;4.25;90.90
84427;BME280;74637;52.170;21.034;2024-02-21T05:28:00;100891.00;;;4.24;90.80
84427;BME280;74637;52.170;21.034;2024-02-21T05:30:29;100896.48;;;4.22;90.68
84427;BME280;74637;52.170;21.034;2024-02-21T05:32:56;100895.27;;;4.20;90.79
84427;BME280;74637;52.170;21.034;2024-02-21T05:35:29;100898.27;;;4.19;91.04
84427;BME280;74637;52.170;21.034;2024-02-21T05:37:55;100896.16;;;4.19;91.07
84427;BME280;74637;52.170;21.034;2024-02-21T05:40:22;100897.73;;;4.20;90.98
84427;BME280;74637;52.170;21.034;2024-02-21T05:42:49;100893.84;;;4.22;91.20
84427;BME280;74637;52.170;21.034;2024-02-21T05:45:18;100891.56;;;4.22;91.25
84427;BME280;74637;52.170;21.034;2024-02-21T05:47:44;100891.91;;;4.22;91.09
84427;BME280;74637;52.170;21.034;2024-02-21T05:50:11;100888.76;;;4.22;91.14
84427;BME280;74637;52.170;21.034;2024-02-21T05:52:38;100888.40;;;4.22;91.13
84427;BME280;74637;52.170;21.034;2024-02-21T05:55:06;100882.27;;;4.23;91.38
84427;BME280;74637;52.170;21.034;2024-02-21T05:57:33;100881.34;;;4.24;91.47
84427;BME280;74637;52.170;21.034;2024-02-21T05:59:59;100884.31;;;4.25;91.44
84427;BME280;74637;52.170;21.034;2024-02-21T06:02:27;100887.44;;;4.28;91.32
84427;BME280;74637;52.170;21.034;2024-02-21T06:04:53;100885.82;;;4.30;91.63
84427;BME280;74637;52.170;21.034;2024-02-21T06:07:20;100883.67;;;4.33;91.31
84427;BME280;74637;52.170;21.034;2024-02-21T06:09:46;100872.39;;;4.35;91.51
84427;BME280;74637;52.170;21.034;2024-02-21T06:12:13;100872.02;;;4.37;91.44
84427;BME280;74637;52.170;21.034;2024-02-21T06:14:39;100878.27;;;4.40;91.44
84427;BME280;74637;52.170;21.034;2024-02-21T06:17:06;100882.25;;;4.43;91.44
84427;BME280;74637;52.170;21.034;2024-02-21T06:19:33;100880.81;;;4.45;91.49
84427;BME280;74637;52.170;21.034;2024-02-21T06:21:59;100880.41;;;4.48;91.51
84427;BME280;74637;52.170;21.034;2024-02-21T06:24:26;100879.80;;;4.52;91.60
84427;BME280;74637;52.170;21.034;2024-02-21T06:26:52;100885.54;;;4.56;91.26
84427;BME280;74637;52.170;21.034;2024-02-21T06:29:19;100887.23;;;4.59;91.44
84427;BME280;74637;52.170;21.034;2024-02-21T06:31:45;100883.34;;;4.61;91.44
84427;BME280;74637;52.170;21.034;2024-02-21T06:34:12;100880.83;;;4.64;91.17
84427;BME280;74637;52.170;21.034;2024-02-21T06:36:39;100881.29;;;4.67;91.14
84427;BME280;74637;52.170;21.034;2024-02-21T06:39:05;100875.97;;;4.70;91.19
84427;BME280;74637;52.170;21.034;2024-02-21T06:41:34;100874.88;;;4.73;91.11
84427;BME280;74637;52.170;21.034;2024-02-21T06:44:02;100886.52;;;4.78;91.32
84427;BME280;74637;52.170;21.034;2024-02-21T06:46:29;100887.15;;;4.82;91.28
84427;BME280;74637;52.170;21.034;2024-02-21T06:48:56;100889.20;;;4.85;91.30
84427;BME280;74637;52.170;21.034;2024-02-21T06:51:23;100885.34;;;4.84;90.92
84427;BME280;74637;52.170;21.034;2024-02-21T06:53:49;100889.50;;;4.88;91.13
84427;BME280;74637;52.170;21.034;2024-02-21T06:56:16;100890.96;;;4.94;90.83
84427;BME280;74637;52.170;21.034;2024-02-21T06:58:43;100890.67;;;5.00;91.07
84427;BME280;74637;52.170;21.034;2024-02-21T07:01:10;100893.41;;;5.04;91.05
84427;BME280;74637;52.170;21.034;2024-02-21T07:03:37;100893.39;;;5.04;90.54
84427;BME280;74637;52.170;21.034;2024-02-21T07:06:04;100890.94;;;5.04;90.92
84427;BME280;74637;52.170;21.034;2024-02-21T07:08:31;100895.50;;;5.04;90.96
84427;BME280;74637;52.170;21.034;2024-02-21T07:10:57;100888.63;;;5.05;90.73
84427;BME280;74637;52.170;21.034;2024-02-21T07:13:24;100882.65;;;5.06;90.89
84427;BME280;74637;52.170;21.034;2024-02-21T07:15:50;100879.97;;;5.08;90.80
84427;BME280;74637;52.170;21.034;2024-02-21T07:18:17;100883.75;;;5.12;90.95
84427;BME280;74637;52.170;21.034;2024-02-21T07:20:43;100882.48;;;5.14;90.71
84427;BME280;74637;52.170;21.034;2024-02-21T07:23:10;100883.66;;;5.17;90.67
84427;BME280;74637;52.170;21.034;2024-02-21T07:25:37;100879.93;;;5.18;90.43
84427;BME280;74637;52.170;21.034;2024-02-21T07:28:04;100881.46;;;5.21;90.42
84427;BME280;74637;52.170;21.034;2024-02-21T07:30:30;100880.88;;;5.24;90.87
84427;BME280;74637;52.170;21.034;2024-02-21T07:32:57;100878.89;;;5.26;90.57
84427;BME280;74637;52.170;21.034;2024-02-21T07:35:23;100875.88;;;5.28;90.61
84427;BME280;74637;52.170;21.034;2024-02-21T07:37:50;100876.88;;;5.30;90.41
84427;BME280;74637;52.170;21.034;2024-02-21T07:40:17;100870.48;;;5.34;90.74
84427;BME280;74637;52.170;21.034;2024-02-21T07:42:44;100868.45;;;5.38;90.46
84427;BME280;74637;52.170;21.034;2024-02-21T07:45:11;100866.96;;;5.41;90.58
84427;BME280;74637;52.170;21.034;2024-02-21T07:47:37;100863.16;;;5.46;90.42
84427;BME280;74637;52.170;21.034;2024-02-21T07:50:04;100860.40;;;5.52;90.62
84427;BME280;74637;52.170;21.034;2024-02-21T07:52:31;100858.75;;;5.55;90.35
84427;BME280;74637;52.170;21.034;2024-02-21T07:54:58;100855.67;;;5.59;90.48
84427;BME280;74637;52.170;21.034;2024-02-21T07:57:24;100851.57;;;5.62;90.42
84427;BME280;74637;52.170;21.034;2024-02-21T07:59:51;100849.21;;;5.64;90.24
84427;BME280;74637;52.170;21.034;2024-02-21T08:02:17;100841.08;;;5.67;90.53
84427;BME280;74637;52.170;21.034;2024-02-21T08:04:44;100838.10;;;5.74;90.48
84427;BME280;74637;52.170;21.034;2024-02-21T08:07:10;100836.34;;;5.81;90.27
84427;BME280;74637;52.170;21.034;2024-02-21T08:09:39;100833.84;;;5.90;90.29
84427;BME280;74637;52.170;21.034;2024-02-21T08:12:08;100830.28;;;5.99;90.38
84427;BME280;74637;52.170;21.034;2024-02-21T08:14:38;100824.09;;;6.08;89.70
84427;BME280;74637;52.170;21.034;2024-02-21T08:17:05;100820.45;;;6.14;89.67
84427;BME280;74637;52.170;21.034;2024-02-21T08:19:31;100818.89;;;6.19;89.51
84427;BME280;74637;52.170;21.034;2024-02-21T08:21:58;100815.09;;;6.23;89.03
84427;BME280;74637;52.170;21.034;2024-02-21T08:24:25;100816.30;;;6.24;88.81
84427;BME280;74637;52.170;21.034;2024-02-21T08:26:51;100816.70;;;6.29;88.97
84427;BME280;74637;52.170;21.034;2024-02-21T08:29:18;100815.25;;;6.31;88.56
84427;BME280;74637;52.170;21.034;2024-02-21T08:31:44;100814.66;;;6.33;88.41
84427;BME280;74637;52.170;21.034;2024-02-21T08:34:11;100813.35;;;6.36;88.27
84427;BME280;74637;52.170;21.034;2024-02-21T08:36:39;100810.07;;;6.40;88.68
84427;BME280;74637;52.170;21.034;2024-02-21T08:39:05;100811.69;;;6.45;88.37
84427;BME280;74637;52.170;21.034;2024-02-21T08:41:32;100811.62;;;6.48;88.15
84427;BME280;74637;52.170;21.034;2024-02-21T08:44:00;100814.89;;;6.51;87.92
84427;BME280;74637;52.170;21.034;2024-02-21T08:46:27;100809.02;;;6.53;88.16
84427;BME280;74637;52.170;21.034;2024-02-21T08:48:54;100813.53;;;6.55;87.87
84427;BME280;74637;52.170;21.034;2024-02-21T08:51:20;100805.45;;;6.54;87.92
84427;BME280;74637;52.170;21.034;2024-02-21T08:53:48;100804.98;;;6.52;87.71
84427;BME280;74637;52.170;21.034;2024-02-21T08:56:15;100802.07;;;6.50;87.65
84427;BME280;74637;52.170;21.034;2024-02-21T08:58:43;100802.27;;;6.49;87.61
84427;BME280;74637;52.170;21.034;2024-02-21T09:01:10;100800.41;;;6.52;87.55
84427;BME280;74637;52.170;21.034;2024-02-21T09:03:38;100801.40;;;6.61;87.73
84427;BME280;74637;52.170;21.034;2024-02-21T09:06:05;100796.36;;;6.71;87.44
84427;BME280;74637;52.170;21.034;2024-02-21T09:08:33;100787.85;;;6.79;87.40
84427;BME280;74637;52.170;21.034;2024-02-21T09:11:00;100788.95;;;6.84;86.96
84427;BME280;74637;52.170;21.034;2024-02-21T09:13:27;100788.85;;;6.87;87.12
84427;BME280;74637;52.170;21.034;2024-02-21T09:15:54;100786.61;;;6.92;86.62
84427;BME280;74637;52.170;21.034;2024-02-21T09:18:20;100788.97;;;6.95;86.70
84427;BME280;74637;52.170;21.034;2024-02-21T09:20:47;100789.65;;;7.02;86.74
84427;BME280;74637;52.170;21.034;2024-02-21T09:23:14;100782.71;;;7.10;86.70
84427;BME280;74637;52.170;21.034;2024-02-21T09:25:40;100779.23;;;7.20;86.48
84427;BME280;74637;52.170;21.034;2024-02-21T09:28:07;100776.85;;;7.23;85.91
84427;BME280;74637;52.170;21.034;2024-02-21T09:30:34;100775.31;;;7.22;85.95
84427;BME280;74637;52.170;21.034;2024-02-21T09:33:00;100782.67;;;7.23;85.43
84427;BME280;74637;52.170;21.034;2024-02-21T09:35:28;100777.89;;;7.18;84.99
84427;BME280;74637;52.170;21.034;2024-02-21T09:37:55;100778.23;;;7.12;85.30
84427;BME280;74637;52.170;21.034;2024-02-21T09:40:21;100781.39;;;7.08;85.43
84427;BME280;74637;52.170;21.034;2024-02-21T09:42:48;100781.69;;;7.03;85.47
84427;BME280;74637;52.170;21.034;2024-02-21T09:45:24;100785.13;;;7.00;85.68
84427;BME280;74637;52.170;21.034;2024-02-21T09:50:47;100777.92;;;6.99;85.87
84427;BME280;74637;52.170;21.034;2024-02-21T09:53:14;100775.54;;;7.02;86.09
84427;BME280;74637;52.170;21.034;2024-02-21T09:55:43;100773.54;;;7.10;85.63
84427;BME280;74637;52.170;21.034;2024-02-21T09:58:10;100773.81;;;7.19;85.02
84427;BME280;74637;52.170;21.034;2024-02-21T10:00:38;100766.03;;;7.26;85.02
84427;BME280;74637;52.170;21.034;2024-02-21T10:03:04;100763.06;;;7.30;84.95
84427;BME280;74637;52.170;21.034;2024-02-21T10:05:37;100759.92;;;7.35;84.35
84427;BME280;74637;52.170;21.034;2024-02-21T10:08:04;100756.63;;;7.38;84.56
84427;BME280;74637;52.170;21.034;2024-02-21T10:10:44;100754.77;;;7.41;84.37
84427;BME280;74637;52.170;21.034;2024-02-21T10:13:11;100748.27;;;7.46;85.08
84427;BME280;74637;52.170;21.034;2024-02-21T10:15:40;100748.84;;;7.50;85.22
84427;BME280;74637;52.170;21.034;2024-02-21T10:18:06;100750.14;;;7.54;84.76
84427;BME280;74637;52.170;21.034;2024-02-21T10:20:33;100743.63;;;7.54;83.59
84427;BME280;74637;52.170;21.034;2024-02-21T10:23:01;100742.29;;;7.51;83.77
84427;BME280;74637;52.170;21.034;2024-02-21T10:25:29;100741.56;;;7.53;83.91
84427;BME280;74637;52.170;21.034;2024-02-21T10:27:57;100734.61;;;7.54;84.08
84427;BME280;74637;52.170;21.034;2024-02-21T10:30:23;100731.73;;;7.56;84.02
84427;BME280;74637;52.170;21.034;2024-02-21T10:32:51;100732.41;;;7.57;83.20
84427;BME280;74637;52.170;21.034;2024-02-21T10:35:31;100732.28;;;7.61;83.65
84427;BME280;74637;52.170;21.034;2024-02-21T10:37:59;100729.02;;;7.68;83.56
84427;BME280;74637;52.170;21.034;2024-02-21T10:40:28;100726.58;;;7.73;83.12
84427;BME280;74637;52.170;21.034;2024-02-21T10:42:59;100725.80;;;7.75;83.61
84427;BME280;74637;52.170;21.034;2024-02-21T10:45:34;100729.55;;;7.74;82.43
84427;BME280;74637;52.170;21.034;2024-02-21T10:48:08;100722.65;;;7.74;83.22
84427;BME280;74637;52.170;21.034;2024-02-21T10:51:16;100720.67;;;7.75;83.09
84427;BME280;74637;52.170;21.034;2024-02-21T10:56:26;100717.38;;;7.64;83.10
84427;BME280;74637;52.170;21.034;2024-02-21T10:58:54;100717.95;;;7.56;82.33
84427;BME280;74637;52.170;21.034;2024-02-21T11:01:24;100714.06;;;7.52;82.78
84427;BME280;74637;52.170;21.034;2024-02-21T11:03:54;100711.39;;;7.53;82.51
84427;BME280;74637;52.170;21.034;2024-02-21T11:06:22;100705.70;;;7.54;82.85
84427;BME280;74637;52.170;21.034;2024-02-21T11:09:07;100694.70;;;7.55;82.23
84427;BME280;74637;52.170;21.034;2024-02-21T11:11:35;100692.20;;;7.56;82.95
84427;BME280;74637;52.170;21.034;2024-02-21T11:14:20;100692.95;;;7.56;83.04
84427;BME280;74637;52.170;21.034;2024-02-21T11:16:47;100688.20;;;7.55;82.75
84427;BME280;74637;52.170;21.034;2024-02-21T11:19:22;100685.48;;;7.52;82.51
84427;BME280;74637;52.170;21.034;2024-02-21T11:21:51;100683.56;;;7.52;82.66
84427;BME280;74637;52.170;21.034;2024-02-21T11:24:33;100679.83;;;7.52;82.74
84427;BME280;74637;52.170;21.034;2024-02-21T11:30:04;100672.52;;;7.49;82.65
84427;BME280;74637;52.170;21.034;2024-02-21T11:32:31;100671.96;;;7.45;83.01
84427;BME280;74637;52.170;21.034;2024-02-21T11:35:02;100671.23;;;7.40;83.20
84427;BME280;74637;52.170;21.034;2024-02-21T11:37:32;100662.58;;;7.36;83.31
84427;BME280;74637;52.170;21.034;2024-02-21T11:40:00;100664.68;;;7.30;83.37
84427;BME280;74637;52.170;21.034;2024-02-21T11:42:28;100668.21;;;7.25;83.49
84427;BME280;74637;52.170;21.034;2024-02-21T11:44:56;100664.02;;;7.18;83.65
84427;BME280;74637;52.170;21.034;2024-02-21T11:47:24;100664.86;;;7.14;83.79
84427;BME280;74637;52.170;21.034;2024-02-21T11:49:51;100667.16;;;7.08;84.01
84427;BME280;74637;52.170;21.034;2024-02-21T11:52:21;100667.75;;;7.01;84.46
84427;BME280;74637;52.170;21.034;2024-02-21T11:54:51;100657.91;;;6.95;84.89
84427;BME280;74637;52.170;21.034;2024-02-21T11:57:19;100662.50;;;6.88;85.11
84427;BME280;74637;52.170;21.034;2024-02-21T11:59:45;100660.59;;;6.82;85.53
84427;BME280;74637;52.170;21.034;2024-02-21T12:02:14;100654.43;;;6.76;85.98
84427;BME280;74637;52.170;21.034;2024-02-21T12:04:42;100651.98;;;6.70;86.21
84427;BME280;74637;52.170;21.034;2024-02-21T12:07:09;100648.74;;;6.66;86.41
84427;BME280;74637;52.170;21.034;2024-02-21T12:09:36;100648.79;;;6.65;86.76
84427;BME280;74637;52.170;21.034;2024-02-21T12:12:04;100642.67;;;6.64;87.05
84427;BME280;74637;52.170;21.034;2024-02-21T12:14:33;100639.25;;;6.66;87.31
84427;BME280;74637;52.170;21.034;2024-02-21T12:17:00;100643.97;;;6.67;87.34
84427;BME280;74637;52.170;21.034;2024-02-21T12:19:29;100636.61;;;6.65;87.46
84427;BME280;74637;52.170;21.034;2024-02-21T12:21:56;100633.31;;;6.64;87.77
84427;BME280;74637;52.170;21.034;2024-02-21T12:24:25;100632.30;;;6.63;88.41
84427;BME280;74637;52.170;21.034;2024-02-21T12:26:53;100628.16;;;6.59;88.93
84427;BME280;74637;52.170;21.034;2024-02-21T12:29:21;100629.81;;;6.57;89.41
84427;BME280;74637;52.170;21.034;2024-02-21T12:31:49;100627.04;;;6.56;89.39
84427;BME280;74637;52.170;21.034;2024-02-21T12:34:16;100626.68;;;6.56;89.74
84427;BME280;74637;52.170;21.034;2024-02-21T12:36:45;100624.42;;;6.55;89.95
84427;BME280;74637;52.170;21.034;2024-02-21T12:39:15;100623.53;;;6.55;90.21
84427;BME280;74637;52.170;21.034;2024-02-21T12:41:42;100615.09;;;6.55;90.13
84427;BME280;74637;52.170;21.034;2024-02-21T12:44:10;100611.74;;;6.55;90.26
84427;BME280;74637;52.170;21.034;2024-02-21T12:46:38;100613.09;;;6.57;90.32
84427;BME280;74637;52.170;21.034;2024-02-21T12:49:06;100606.05;;;6.57;90.36
84427;BME280;74637;52.170;21.034;2024-02-21T12:51:36;100606.02;;;6.58;90.57
84427;BME280;74637;52.170;21.034;2024-02-21T12:54:03;100608.66;;;6.58;90.16
84427;BME280;74637;52.170;21.034;2024-02-21T12:56:29;100606.66;;;6.54;90.49
84427;BME280;74637;52.170;21.034;2024-02-21T12:58:57;100600.23;;;6.52;90.69
84427;BME280;74637;52.170;21.034;2024-02-21T13:01:24;100596.73;;;6.52;91.02